sensor_id;sensor_type;location;lat;lon;timestamp;pressure;altitude;pressure_sealevel;temperature
65272;BMP280;51868;48.812;8.198;2022-10-16T00:01:29;100139.38;;;16.70
65272;BMP280;51868;48.812;8.198;2022-10-16T00:04:00;100140.78;;;16.71
65272;BMP280;51868;48.812;8.198;2022-10-16T00:06:28;100137.97;;;16.71
65272;BMP280;51868;48.812;8.198;2022-10-16T00:08:57;100133.81;;;16.72
65272;BMP280;51868;48.812;8.198;2022-10-16T00:11:27;100119.84;;;16.74
65272;BMP280;51868;48.812;8.198;2022-10-16T00:13:58;100116.34;;;16.76
65272;BMP280;51868;48.812;8.198;2022-10-16T00:16:27;100122.69;;;16.78
65272;BMP280;51868;48.812;8.198;2022-10-16T00:18:55;100125.50;;;16.78
65272;BMP280;51868;48.812;8.198;2022-10-16T00:21:26;100133.97;;;16.80
65272;BMP280;51868;48.812;8.198;2022-10-16T00:23:55;100117.81;;;16.81
65272;BMP280;51868;48.812;8.198;2022-10-16T00:26:23;100117.16;;;16.82
65272;BMP280;51868;48.812;8.198;2022-10-16T00:28:51;100126.97;;;16.83
65272;BMP280;51868;48.812;8.198;2022-10-16T00:31:22;100122.81;;;16.84
65272;BMP280;51868;48.812;8.198;2022-10-16T00:33:50;100117.22;;;16.84
65272;BMP280;51868;48.812;8.198;2022-10-16T00:36:20;100110.94;;;16.86
65272;BMP280;51868;48.812;8.198;2022-10-16T00:38:50;100110.94;;;16.88
65272;BMP280;51868;48.812;8.198;2022-10-16T00:41:19;100113.75;;;16.88
65272;BMP280;51868;48.812;8.198;2022-10-16T00:43:49;100126.34;;;16.87
65272;BMP280;51868;48.812;8.198;2022-10-16T00:46:19;100131.25;;;16.86
65272;BMP280;51868;48.812;8.198;2022-10-16T00:48:51;100136.84;;;16.86
65272;BMP280;51868;48.812;8.198;2022-10-16T00:51:21;100155.09;;;16.87
65272;BMP280;51868;48.812;8.198;2022-10-16T00:53:50;100145.94;;;16.85
65272;BMP280;51868;48.812;8.198;2022-10-16T00:56:18;100150.13;;;16.84
65272;BMP280;51868;48.812;8.198;2022-10-16T00:58:45;100144.53;;;16.84
65272;BMP280;51868;48.812;8.198;2022-10-16T01:01:13;100145.25;;;16.84
65272;BMP280;51868;48.812;8.198;2022-10-16T01:03:41;100136.16;;;16.86
65272;BMP280;51868;48.812;8.198;2022-10-16T01:06:20;100132.66;;;16.87
65272;BMP280;51868;48.812;8.198;2022-10-16T01:09:01;100138.31;;;16.89
65272;BMP280;51868;48.812;8.198;2022-10-16T01:11:34;100141.84;;;16.90
65272;BMP280;51868;48.812;8.198;2022-10-16T01:14:11;100139.06;;;16.92
65272;BMP280;51868;48.812;8.198;2022-10-16T01:16:47;100144.66;;;16.92
65272;BMP280;51868;48.812;8.198;2022-10-16T01:19:20;100140.50;;;16.93
65272;BMP280;51868;48.812;8.198;2022-10-16T01:21:54;100156.56;;;16.92
65272;BMP280;51868;48.812;8.198;2022-10-16T01:24:31;100153.06;;;16.92
65272;BMP280;51868;48.812;8.198;2022-10-16T01:27:12;100163.63;;;16.94
65272;BMP280;51868;48.812;8.198;2022-10-16T01:29:47;100160.81;;;16.94
65272;BMP280;51868;48.812;8.198;2022-10-16T01:32:19;100148.16;;;16.92
65272;BMP280;51868;48.812;8.198;2022-10-16T01:34:51;100157.25;;;16.91
65272;BMP280;51868;48.812;8.198;2022-10-16T01:37:32;100152.34;;;16.89
65272;BMP280;51868;48.812;8.198;2022-10-16T01:40:02;100148.06;;;16.86
65272;BMP280;51868;48.812;8.198;2022-10-16T01:42:37;100145.25;;;16.84
65272;BMP280;51868;48.812;8.198;2022-10-16T01:45:07;100146.59;;;16.83
65272;BMP280;51868;48.812;8.198;2022-10-16T01:47:39;100133.97;;;16.82
65272;BMP280;51868;48.812;8.198;2022-10-16T01:50:08;100128.34;;;16.80
65272;BMP280;51868;48.812;8.198;2022-10-16T01:52:39;100125.50;;;16.78
65272;BMP280;51868;48.812;8.198;2022-10-16T01:55:09;100133.16;;;16.76
65272;BMP280;51868;48.812;8.198;2022-10-16T01:57:43;100139.47;;;16.74
65272;BMP280;51868;48.812;8.198;2022-10-16T02:00:13;100135.16;;;16.71
65272;BMP280;51868;48.812;8.198;2022-10-16T02:02:45;100137.88;;;16.67
65272;BMP280;51868;48.812;8.198;2022-10-16T02:05:17;100144.16;;;16.63
65272;BMP280;51868;48.812;8.198;2022-10-16T02:07:47;100147.53;;;16.60
65272;BMP280;51868;48.812;8.198;2022-10-16T02:10:15;100152.41;;;16.57
65272;BMP280;51868;48.812;8.198;2022-10-16T02:12:48;100152.34;;;16.53
65272;BMP280;51868;48.812;8.198;2022-10-16T02:15:17;100155.06;;;16.49
65272;BMP280;51868;48.812;8.198;2022-10-16T02:17:45;100155.72;;;16.48
65272;BMP280;51868;48.812;8.198;2022-10-16T02:20:12;100153.53;;;16.44
65272;BMP280;51868;48.812;8.198;2022-10-16T02:22:42;100153.53;;;16.42
65272;BMP280;51868;48.812;8.198;2022-10-16T02:25:15;100154.13;;;16.38
65272;BMP280;51868;48.812;8.198;2022-10-16T02:27:53;100147.06;;;16.35
65272;BMP280;51868;48.812;8.198;2022-10-16T02:30:27;100145.63;;;16.34
65272;BMP280;51868;48.812;8.198;2022-10-16T02:32:57;100151.22;;;16.32
65272;BMP280;51868;48.812;8.198;2022-10-16T02:35:27;100156.81;;;16.32
65272;BMP280;51868;48.812;8.198;2022-10-16T02:37:56;100160.28;;;16.31
65272;BMP280;51868;48.812;8.198;2022-10-16T02:40:25;100157.44;;;16.29
65272;BMP280;51868;48.812;8.198;2022-10-16T02:42:55;100165.78;;;16.27
65272;BMP280;51868;48.812;8.198;2022-10-16T02:45:23;100153.88;;;16.26
65272;BMP280;51868;48.812;8.198;2022-10-16T02:47:51;100162.22;;;16.24
65272;BMP280;51868;48.812;8.198;2022-10-16T02:50:19;100153.81;;;16.22
65272;BMP280;51868;48.812;8.198;2022-10-16T02:52:46;100154.47;;;16.23
65272;BMP280;51868;48.812;8.198;2022-10-16T02:55:14;100158.03;;;16.25
65272;BMP280;51868;48.812;8.198;2022-10-16T02:57:42;100158.78;;;16.28
65272;BMP280;51868;48.812;8.198;2022-10-16T03:00:13;100156.75;;;16.30
65272;BMP280;51868;48.812;8.198;2022-10-16T03:02:41;100165.22;;;16.34
65272;BMP280;51868;48.812;8.198;2022-10-16T03:05:09;100162.44;;;16.34
65272;BMP280;51868;48.812;8.198;2022-10-16T03:07:37;100156.88;;;16.36
65272;BMP280;51868;48.812;8.198;2022-10-16T03:10:06;100161.84;;;16.38
65272;BMP280;51868;48.812;8.198;2022-10-16T03:12:33;100165.31;;;16.38
65272;BMP280;51868;48.812;8.198;2022-10-16T03:15:01;100156.97;;;16.40
65272;BMP280;51868;48.812;8.198;2022-10-16T03:17:31;100162.56;;;16.40
65272;BMP280;51868;48.812;8.198;2022-10-16T03:19:59;100162.53;;;16.38
65272;BMP280;51868;48.812;8.198;2022-10-16T03:22:26;100159.63;;;16.34
65272;BMP280;51868;48.812;8.198;2022-10-16T03:24:54;100163.81;;;16.33
65272;BMP280;51868;48.812;8.198;2022-10-16T03:27:21;100162.41;;;16.32
65272;BMP280;51868;48.812;8.198;2022-10-16T03:29:50;100172.91;;;16.32
65272;BMP280;51868;48.812;8.198;2022-10-16T03:32:17;100168.69;;;16.31
65272;BMP280;51868;48.812;8.198;2022-10-16T03:34:47;100157.44;;;16.29
65272;BMP280;51868;48.812;8.198;2022-10-16T03:37:15;100170.69;;;16.26
65272;BMP280;51868;48.812;8.198;2022-10-16T03:39:42;100167.81;;;16.22
65272;BMP280;51868;48.812;8.198;2022-10-16T03:42:10;100173.28;;;16.18
65272;BMP280;51868;48.812;8.198;2022-10-16T03:44:38;100175.38;;;16.17
65272;BMP280;51868;48.812;8.198;2022-10-16T03:47:06;100169.69;;;16.13
65272;BMP280;51868;48.812;8.198;2022-10-16T03:49:34;100166.81;;;16.11
65272;BMP280;51868;48.812;8.198;2022-10-16T03:52:03;100164.72;;;16.10
65272;BMP280;51868;48.812;8.198;2022-10-16T03:54:31;100162.59;;;16.08
65272;BMP280;51868;48.812;8.198;2022-10-16T03:56:58;100167.47;;;16.08
65272;BMP280;51868;48.812;8.198;2022-10-16T03:59:26;100174.44;;;16.07
65272;BMP280;51868;48.812;8.198;2022-10-16T04:01:53;100173.03;;;16.06
65272;BMP280;51868;48.812;8.198;2022-10-16T04:04:21;100177.19;;;16.05
65272;BMP280;51868;48.812;8.198;2022-10-16T04:06:49;100184.81;;;16.02
65272;BMP280;51868;48.812;8.198;2022-10-16T04:09:18;100177.78;;;15.99
65272;BMP280;51868;48.812;8.198;2022-10-16T04:11:46;100179.81;;;15.97
65272;BMP280;51868;48.812;8.198;2022-10-16T04:14:13;100195.16;;;15.96
65272;BMP280;51868;48.812;8.198;2022-10-16T04:16:41;100199.31;;;15.92
65272;BMP280;51868;48.812;8.198;2022-10-16T04:19:09;100199.94;;;15.91
65272;BMP280;51868;48.812;8.198;2022-10-16T04:21:37;100200.69;;;15.91
65272;BMP280;51868;48.812;8.198;2022-10-16T04:24:05;100208.41;;;15.93
65272;BMP280;51868;48.812;8.198;2022-10-16T04:26:34;100215.44;;;15.94
65272;BMP280;51868;48.812;8.198;2022-10-16T04:29:01;100211.94;;;15.96
65272;BMP280;51868;48.812;8.198;2022-10-16T04:31:29;100205.00;;;15.97
65272;BMP280;51868;48.812;8.198;2022-10-16T04:33:58;100212.69;;;15.96
65272;BMP280;51868;48.812;8.198;2022-10-16T04:36:25;100212.69;;;15.96
65272;BMP280;51868;48.812;8.198;2022-10-16T04:38:54;100203.56;;;15.96
65272;BMP280;51868;48.812;8.198;2022-10-16T04:41:22;100200.03;;;15.95
65272;BMP280;51868;48.812;8.198;2022-10-16T04:43:51;100203.53;;;15.93
65272;BMP280;51868;48.812;8.198;2022-10-16T04:46:19;100207.00;;;15.92
65272;BMP280;51868;48.812;8.198;2022-10-16T04:48:46;100222.34;;;15.91
65272;BMP280;51868;48.812;8.198;2022-10-16T04:51:14;100220.28;;;15.91
65272;BMP280;51868;48.812;8.198;2022-10-16T04:53:41;100230.72;;;15.91
65272;BMP280;51868;48.812;8.198;2022-10-16T04:56:09;100221.63;;;15.90
65272;BMP280;51868;48.812;8.198;2022-10-16T04:58:37;100221.63;;;15.90
65272;BMP280;51868;48.812;8.198;2022-10-16T05:01:06;100232.13;;;15.90
65272;BMP280;51868;48.812;8.198;2022-10-16T05:03:33;100231.44;;;15.89
65272;BMP280;51868;48.812;8.198;2022-10-16T05:06:01;100232.78;;;15.88
65272;BMP280;51868;48.812;8.198;2022-10-16T05:08:30;100232.78;;;15.88
65272;BMP280;51868;48.812;8.198;2022-10-16T05:10:57;100238.38;;;15.88
65272;BMP280;51868;48.812;8.198;2022-10-16T05:13:25;100237.03;;;15.89
65272;BMP280;51868;48.812;8.198;2022-10-16T05:15:53;100241.19;;;15.88
65272;BMP280;51868;48.812;8.198;2022-10-16T05:18:22;100232.81;;;15.90
65272;BMP280;51868;48.812;8.198;2022-10-16T05:20:50;100240.50;;;15.90
65272;BMP280;51868;48.812;8.198;2022-10-16T05:23:17;100244.69;;;15.89
65272;BMP280;51868;48.812;8.198;2022-10-16T05:25:52;100248.22;;;15.89
65272;BMP280;51868;48.812;8.198;2022-10-16T05:28:21;100241.22;;;15.90
65272;BMP280;51868;48.812;8.198;2022-10-16T05:30:49;100234.28;;;15.91
65272;BMP280;51868;48.812;8.198;2022-10-16T05:33:16;100236.41;;;15.93
65272;BMP280;51868;48.812;8.198;2022-10-16T05:35:46;100232.94;;;15.95
65272;BMP280;51868;48.812;8.198;2022-10-16T05:38:14;100240.66;;;15.96
65272;BMP280;51868;48.812;8.198;2022-10-16T05:40:41;100242.09;;;15.97
65272;BMP280;51868;48.812;8.198;2022-10-16T05:43:09;100242.78;;;15.98
65272;BMP280;51868;48.812;8.198;2022-10-16T05:45:37;100235.84;;;15.99
65272;BMP280;51868;48.812;8.198;2022-10-16T05:48:05;100227.44;;;15.99
65272;BMP280;51868;48.812;8.198;2022-10-16T05:50:32;100236.59;;;16.01
65272;BMP280;51868;48.812;8.198;2022-10-16T05:53:01;100258.28;;;16.01
65272;BMP280;51868;48.812;8.198;2022-10-16T05:55:29;100248.50;;;16.02
65272;BMP280;51868;48.812;8.198;2022-10-16T05:57:57;100250.59;;;16.01
65272;BMP280;51868;48.812;8.198;2022-10-16T06:00:24;100249.91;;;16.03
65272;BMP280;51868;48.812;8.198;2022-10-16T06:02:53;100262.63;;;16.06
65272;BMP280;51868;48.812;8.198;2022-10-16T06:05:21;100268.91;;;16.06
65272;BMP280;51868;48.812;8.198;2022-10-16T06:07:51;100271.09;;;16.10
65272;BMP280;51868;48.812;8.198;2022-10-16T06:10:20;100265.53;;;16.12
65272;BMP280;51868;48.812;8.198;2022-10-16T06:12:48;100256.47;;;16.13
65272;BMP280;51868;48.812;8.198;2022-10-16T06:15:15;100244.66;;;16.17
65272;BMP280;51868;48.812;8.198;2022-10-16T06:17:43;100253.81;;;16.20
65272;BMP280;51868;48.812;8.198;2022-10-16T06:20:11;100251.09;;;16.22
65272;BMP280;51868;48.812;8.198;2022-10-16T06:22:39;100269.97;;;16.23
65272;BMP280;51868;48.812;8.198;2022-10-16T06:25:07;100263.03;;;16.24
65272;BMP280;51868;48.812;8.198;2022-10-16T06:27:36;100268.69;;;16.26
65272;BMP280;51868;48.812;8.198;2022-10-16T06:30:04;100270.09;;;16.27
65272;BMP280;51868;48.812;8.198;2022-10-16T06:32:32;100270.13;;;16.29
65272;BMP280;51868;48.812;8.198;2022-10-16T06:35:00;100273.00;;;16.31
65272;BMP280;51868;48.812;8.198;2022-10-16T06:37:27;100280.75;;;16.33
65272;BMP280;51868;48.812;8.198;2022-10-16T06:39:55;100275.16;;;16.33
65272;BMP280;51868;48.812;8.198;2022-10-16T06:42:23;100269.56;;;16.33
65272;BMP280;51868;48.812;8.198;2022-10-16T06:44:52;100268.84;;;16.34
65272;BMP280;51868;48.812;8.198;2022-10-16T06:47:19;100271.72;;;16.36
65272;BMP280;51868;48.812;8.198;2022-10-16T06:49:47;100277.97;;;16.35
65272;BMP280;51868;48.812;8.198;2022-10-16T06:52:19;100274.50;;;16.36
65272;BMP280;51868;48.812;8.198;2022-10-16T06:54:47;100284.34;;;16.37
65272;BMP280;51868;48.812;8.198;2022-10-16T06:57:15;100289.25;;;16.39
65272;BMP280;51868;48.812;8.198;2022-10-16T06:59:42;100294.22;;;16.40
65272;BMP280;51868;48.812;8.198;2022-10-16T07:02:14;100294.28;;;16.42
65272;BMP280;51868;48.812;8.198;2022-10-16T07:04:41;100297.16;;;16.47
65272;BMP280;51868;48.812;8.198;2022-10-16T07:07:09;100298.69;;;16.52
65272;BMP280;51868;48.812;8.198;2022-10-16T07:09:36;100295.97;;;16.56
65272;BMP280;51868;48.812;8.198;2022-10-16T07:12:04;100307.22;;;16.60
65272;BMP280;51868;48.812;8.198;2022-10-16T07:14:32;100307.34;;;16.64
65272;BMP280;51868;48.812;8.198;2022-10-16T07:17:07;100306.69;;;16.65
65272;BMP280;51868;48.812;8.198;2022-10-16T07:19:36;100303.19;;;16.67
65272;BMP280;51868;48.812;8.198;2022-10-16T07:22:04;100315.16;;;16.67
65272;BMP280;51868;48.812;8.198;2022-10-16T07:24:35;100315.19;;;16.70
65272;BMP280;51868;48.812;8.198;2022-10-16T07:27:03;100316.59;;;16.71
65272;BMP280;51868;48.812;8.198;2022-10-16T07:29:31;100326.47;;;16.74
65272;BMP280;51868;48.812;8.198;2022-10-16T07:31:59;100327.22;;;16.74
65272;BMP280;51868;48.812;8.198;2022-10-16T07:34:27;100333.53;;;16.75
65272;BMP280;51868;48.812;8.198;2022-10-16T07:37:02;100357.34;;;16.76
65272;BMP280;51868;48.812;8.198;2022-10-16T07:39:30;100350.38;;;16.77
65272;BMP280;51868;48.812;8.198;2022-10-16T07:41:58;100354.59;;;16.78
65272;BMP280;51868;48.812;8.198;2022-10-16T07:44:25;100353.22;;;16.81
65272;BMP280;51868;48.812;8.198;2022-10-16T07:46:53;100353.22;;;16.81
65272;BMP280;51868;48.812;8.198;2022-10-16T07:49:21;100359.59;;;16.83
65272;BMP280;51868;48.812;8.198;2022-10-16T07:51:49;100365.28;;;16.85
65272;BMP280;51868;48.812;8.198;2022-10-16T07:54:18;100373.00;;;16.87
65272;BMP280;51868;48.812;8.198;2022-10-16T07:56:45;100374.41;;;16.88
65272;BMP280;51868;48.812;8.198;2022-10-16T07:59:13;100368.16;;;16.89
65272;BMP280;51868;48.812;8.198;2022-10-16T08:01:41;100364.69;;;16.91
65272;BMP280;51868;48.812;8.198;2022-10-16T08:04:09;100366.81;;;16.92
65272;BMP280;51868;48.812;8.198;2022-10-16T08:06:39;100372.41;;;16.90
65272;BMP280;51868;48.812;8.198;2022-10-16T08:09:07;100374.50;;;16.92
65272;BMP280;51868;48.812;8.198;2022-10-16T08:11:36;100364.00;;;16.92
65272;BMP280;51868;48.812;8.198;2022-10-16T08:14:04;100371.06;;;16.94
65272;BMP280;51868;48.812;8.198;2022-10-16T08:16:32;100368.31;;;16.96
65272;BMP280;51868;48.812;8.198;2022-10-16T08:18:59;100368.34;;;16.98
65272;BMP280;51868;48.812;8.198;2022-10-16T08:21:27;100361.41;;;17.01
65272;BMP280;51868;48.812;8.198;2022-10-16T08:23:55;100363.59;;;17.04
65272;BMP280;51868;48.812;8.198;2022-10-16T08:26:27;100372.91;;;17.15
65272;BMP280;51868;48.812;8.198;2022-10-16T08:28:56;100360.31;;;17.50
65272;BMP280;51868;48.812;8.198;2022-10-16T08:31:24;100373.78;;;17.58
65272;BMP280;51868;48.812;8.198;2022-10-16T08:33:53;100371.03;;;17.60
65272;BMP280;51868;48.812;8.198;2022-10-16T08:36:23;100374.53;;;17.60
65272;BMP280;51868;48.812;8.198;2022-10-16T08:38:53;100383.69;;;17.63
65272;BMP280;51868;48.812;8.198;2022-10-16T08:41:36;100387.28;;;17.67
65272;BMP280;51868;48.812;8.198;2022-10-16T08:44:23;100386.03;;;17.75
65272;BMP280;51868;48.812;8.198;2022-10-16T08:47:01;100386.88;;;17.83
65272;BMP280;51868;48.812;8.198;2022-10-16T08:49:31;100392.63;;;17.89
65272;BMP280;51868;48.812;8.198;2022-10-16T08:51:58;100388.50;;;17.95
65272;BMP280;51868;48.812;8.198;2022-10-16T08:54:29;100398.44;;;18.02
65272;BMP280;51868;48.812;8.198;2022-10-16T08:57:09;100404.88;;;18.08
65272;BMP280;51868;48.812;8.198;2022-10-16T08:59:38;100403.50;;;18.11
65272;BMP280;51868;48.812;8.198;2022-10-16T09:02:20;100415.53;;;18.16
65272;BMP280;51868;48.812;8.198;2022-10-16T09:05:02;100426.88;;;18.22
65272;BMP280;51868;48.812;8.198;2022-10-16T09:07:43;100427.09;;;18.34
65272;BMP280;51868;48.812;8.198;2022-10-16T09:10:23;100433.66;;;18.49
65272;BMP280;51868;48.812;8.198;2022-10-16T09:12:58;100436.00;;;18.63
65272;BMP280;51868;48.812;8.198;2022-10-16T09:15:34;100435.41;;;18.73
65272;BMP280;51868;48.812;8.198;2022-10-16T09:18:09;100434.78;;;18.78
65272;BMP280;51868;48.812;8.198;2022-10-16T09:20:46;100437.59;;;18.78
65272;BMP280;51868;48.812;8.198;2022-10-16T09:23:18;100440.47;;;18.80
65272;BMP280;51868;48.812;8.198;2022-10-16T09:25:52;100444.72;;;18.83
65272;BMP280;51868;48.812;8.198;2022-10-16T09:28:20;100448.28;;;18.86
65272;BMP280;51868;48.812;8.198;2022-10-16T09:30:50;100451.16;;;18.90
65272;BMP280;51868;48.812;8.198;2022-10-16T09:33:20;100450.47;;;18.91
65272;BMP280;51868;48.812;8.198;2022-10-16T09:35:50;100461.03;;;18.93
65272;BMP280;51868;48.812;8.198;2022-10-16T09:38:25;100461.06;;;18.95
65272;BMP280;51868;48.812;8.198;2022-10-16T09:40:53;100467.44;;;19.00
65272;BMP280;51868;48.812;8.198;2022-10-16T09:43:32;100462.63;;;19.06
65272;BMP280;51868;48.812;8.198;2022-10-16T09:46:07;100465.53;;;19.14
65272;BMP280;51868;48.812;8.198;2022-10-16T09:48:44;100474.09;;;19.21
65272;BMP280;51868;48.812;8.198;2022-10-16T09:51:20;100465.16;;;19.38
65272;BMP280;51868;48.812;8.198;2022-10-16T09:53:55;100473.81;;;19.57
65272;BMP280;51868;48.812;8.198;2022-10-16T09:56:26;100476.81;;;19.73
65272;BMP280;51868;48.812;8.198;2022-10-16T09:59:00;100485.50;;;19.93
65272;BMP280;51868;48.812;8.198;2022-10-16T10:01:37;100483.19;;;20.48
65272;BMP280;51868;48.812;8.198;2022-10-16T10:04:07;100489.94;;;21.00
65272;BMP280;51868;48.812;8.198;2022-10-16T10:06:36;100482.38;;;21.47
65272;BMP280;51868;48.812;8.198;2022-10-16T10:09:06;100471.19;;;21.88
65272;BMP280;51868;48.812;8.198;2022-10-16T10:11:48;100474.06;;;22.29
65272;BMP280;51868;48.812;8.198;2022-10-16T10:14:20;100481.09;;;22.61
65272;BMP280;51868;48.812;8.198;2022-10-16T10:16:51;100486.72;;;22.91
65272;BMP280;51868;48.812;8.198;2022-10-16T10:19:22;100490.13;;;23.22
65272;BMP280;51868;48.812;8.198;2022-10-16T10:21:54;100493.59;;;23.41
65272;BMP280;51868;48.812;8.198;2022-10-16T10:24:22;100487.97;;;23.31
65272;BMP280;51868;48.812;8.198;2022-10-16T10:26:56;100495.06;;;23.30
65272;BMP280;51868;48.812;8.198;2022-10-16T10:29:38;100498.63;;;23.22
65272;BMP280;51868;48.812;8.198;2022-10-16T10:32:19;100500.09;;;23.01
65272;BMP280;51868;48.812;8.198;2022-10-16T10:35:04;100503.00;;;22.78
65272;BMP280;51868;48.812;8.198;2022-10-16T10:37:48;100502.31;;;22.57
65272;BMP280;51868;48.812;8.198;2022-10-16T10:40:28;100503.75;;;22.42
65272;BMP280;51868;48.812;8.198;2022-10-16T10:43:02;100502.31;;;22.33
65272;BMP280;51868;48.812;8.198;2022-10-16T10:45:39;100505.84;;;22.23
65272;BMP280;51868;48.812;8.198;2022-10-16T10:48:21;100509.38;;;22.10
65272;BMP280;51868;48.812;8.198;2022-10-16T10:50:54;100512.19;;;21.99
65272;BMP280;51868;48.812;8.198;2022-10-16T10:53:37;100508.63;;;21.89
65272;BMP280;51868;48.812;8.198;2022-10-16T10:56:16;100504.38;;;21.82
65272;BMP280;51868;48.812;8.198;2022-10-16T10:58:57;100505.78;;;21.89
65272;BMP280;51868;48.812;8.198;2022-10-16T11:01:35;100498.75;;;22.00
65272;BMP280;51868;48.812;8.198;2022-10-16T11:04:23;100491.72;;;22.21
65272;BMP280;51868;48.812;8.198;2022-10-16T11:06:55;100493.13;;;22.55
65272;BMP280;51868;48.812;8.198;2022-10-16T11:09:28;100499.44;;;22.92
65272;BMP280;51868;48.812;8.198;2022-10-16T11:12:01;100486.59;;;23.20
65272;BMP280;51868;48.812;8.198;2022-10-16T11:14:38;100487.91;;;23.47
65272;BMP280;51868;48.812;8.198;2022-10-16T11:17:10;100487.88;;;23.45
65272;BMP280;51868;48.812;8.198;2022-10-16T11:19:44;100487.97;;;23.33
65272;BMP280;51868;48.812;8.198;2022-10-16T11:22:19;100480.94;;;23.18
65272;BMP280;51868;48.812;8.198;2022-10-16T11:24:54;100481.00;;;23.05
65272;BMP280;51868;48.812;8.198;2022-10-16T11:27:35;100475.38;;;22.89
65272;BMP280;51868;48.812;8.198;2022-10-16T11:30:11;100478.25;;;22.75
65272;BMP280;51868;48.812;8.198;2022-10-16T11:32:52;100478.28;;;22.61
65272;BMP280;51868;48.812;8.198;2022-10-16T11:35:28;100481.81;;;22.51
65272;BMP280;51868;48.812;8.198;2022-10-16T11:38:02;100479.69;;;22.39
65272;BMP280;51868;48.812;8.198;2022-10-16T11:40:32;100481.09;;;22.28
65272;BMP280;51868;48.812;8.198;2022-10-16T11:43:13;100480.41;;;22.15
65272;BMP280;51868;48.812;8.198;2022-10-16T11:45:43;100481.09;;;22.03
65272;BMP280;51868;48.812;8.198;2022-10-16T11:48:20;100492.38;;;21.93
65272;BMP280;51868;48.812;8.198;2022-10-16T11:50:53;100485.31;;;21.88
65272;BMP280;51868;48.812;8.198;2022-10-16T11:53:29;100482.50;;;21.86
65272;BMP280;51868;48.812;8.198;2022-10-16T11:55:59;100490.94;;;21.84
65272;BMP280;51868;48.812;8.198;2022-10-16T11:58:31;100486.72;;;21.81
65272;BMP280;51868;48.812;8.198;2022-10-16T12:01:15;100476.09;;;21.77
65272;BMP280;51868;48.812;8.198;2022-10-16T12:03:46;100485.31;;;21.74
65272;BMP280;51868;48.812;8.198;2022-10-16T12:06:28;100483.84;;;21.67
65272;BMP280;51868;48.812;8.198;2022-10-16T12:08:59;100476.78;;;21.62
65272;BMP280;51868;48.812;8.198;2022-10-16T12:11:36;100487.34;;;21.57
65272;BMP280;51868;48.812;8.198;2022-10-16T12:14:07;100479.56;;;21.51
65272;BMP280;51868;48.812;8.198;2022-10-16T12:16:52;100483.81;;;21.48
65272;BMP280;51868;48.812;8.198;2022-10-16T12:19:23;100473.88;;;21.43
65272;BMP280;51868;48.812;8.198;2022-10-16T12:21:55;100474.59;;;21.40
65272;BMP280;51868;48.812;8.198;2022-10-16T12:24:33;100472.44;;;21.36
65272;BMP280;51868;48.812;8.198;2022-10-16T12:27:02;100471.03;;;21.35
65272;BMP280;51868;48.812;8.198;2022-10-16T12:29:34;100468.91;;;21.34
65272;BMP280;51868;48.812;8.198;2022-10-16T12:32:05;100473.88;;;21.33
65272;BMP280;51868;48.812;8.198;2022-10-16T12:34:39;100477.38;;;21.30
65272;BMP280;51868;48.812;8.198;2022-10-16T12:37:13;100476.63;;;21.25
65272;BMP280;51868;48.812;8.198;2022-10-16T12:39:42;100471.69;;;21.23
65272;BMP280;51868;48.812;8.198;2022-10-16T12:42:32;100469.56;;;21.20
65272;BMP280;51868;48.812;8.198;2022-10-16T12:45:22;100468.84;;;21.17
65272;BMP280;51868;48.812;8.198;2022-10-16T12:47:55;100468.13;;;21.15
65272;BMP280;51868;48.812;8.198;2022-10-16T12:50:27;100463.88;;;21.12
65272;BMP280;51868;48.812;8.198;2022-10-16T12:52:58;100472.31;;;21.10
65272;BMP280;51868;48.812;8.198;2022-10-16T12:55:40;100473.72;;;21.07
65272;BMP280;51868;48.812;8.198;2022-10-16T12:58:36;100472.28;;;21.06
65272;BMP280;51868;48.812;8.198;2022-10-16T13:01:16;100465.97;;;21.07
65272;BMP280;51868;48.812;8.198;2022-10-16T13:04:04;100462.44;;;21.05
65272;BMP280;51868;48.812;8.198;2022-10-16T13:06:43;100468.06;;;21.03
65272;BMP280;51868;48.812;8.198;2022-10-16T13:09:39;100462.41;;;21.00
65272;BMP280;51868;48.812;8.198;2022-10-16T13:12:21;100460.97;;;21.01
65272;BMP280;51868;48.812;8.198;2022-10-16T13:15:05;100465.25;;;21.03
65272;BMP280;51868;48.812;8.198;2022-10-16T13:17:41;100461.00;;;21.04
65272;BMP280;51868;48.812;8.198;2022-10-16T13:20:18;100461.00;;;21.04
65272;BMP280;51868;48.812;8.198;2022-10-16T13:22:59;100462.44;;;21.05
65272;BMP280;51868;48.812;8.198;2022-10-16T13:25:43;100451.88;;;21.05
65272;BMP280;51868;48.812;8.198;2022-10-16T13:28:21;100452.53;;;21.06
65272;BMP280;51868;48.812;8.198;2022-10-16T13:30:52;100452.53;;;21.06
65272;BMP280;51868;48.812;8.198;2022-10-16T13:33:25;100446.22;;;21.05
65272;BMP280;51868;48.812;8.198;2022-10-16T13:35:56;100455.38;;;21.04
65272;BMP280;51868;48.812;8.198;2022-10-16T13:38:25;100451.84;;;21.01
65272;BMP280;51868;48.812;8.198;2022-10-16T13:40:57;100444.75;;;21.02
65272;BMP280;51868;48.812;8.198;2022-10-16T13:43:27;100454.66;;;21.01
65272;BMP280;51868;48.812;8.198;2022-10-16T13:46:01;100464.50;;;21.02
65272;BMP280;51868;48.812;8.198;2022-10-16T13:48:44;100459.59;;;21.07
65272;BMP280;51868;48.812;8.198;2022-10-16T13:51:13;100456.13;;;21.14
65272;BMP280;51868;48.812;8.198;2022-10-16T13:53:42;100460.44;;;21.32
65272;BMP280;51868;48.812;8.198;2022-10-16T13:56:15;100454.19;;;21.62
65272;BMP280;51868;48.812;8.198;2022-10-16T13:58:43;100451.41;;;21.92
65272;BMP280;51868;48.812;8.198;2022-10-16T14:01:17;100454.25;;;22.02
65272;BMP280;51868;48.812;8.198;2022-10-16T14:03:47;100466.97;;;22.10
65272;BMP280;51868;48.812;8.198;2022-10-16T14:06:18;100450.72;;;22.12
65272;BMP280;51868;48.812;8.198;2022-10-16T14:08:57;100454.28;;;22.11
65272;BMP280;51868;48.812;8.198;2022-10-16T14:11:28;100450.72;;;22.10
65272;BMP280;51868;48.812;8.198;2022-10-16T14:13:56;100452.16;;;22.09
65272;BMP280;51868;48.812;8.198;2022-10-16T14:16:29;100461.31;;;22.05
65272;BMP280;51868;48.812;8.198;2022-10-16T14:19:01;100454.25;;;21.96
65272;BMP280;51868;48.812;8.198;2022-10-16T14:21:30;100457.78;;;21.91